Time;durP1;ratioP1;P1;durP2;ratioP2;P2;SDS_P1;SDS_P2;PMS_P1;PMS_P2;Temp;Humidity;BMP_temperature;BMP_pressure;BME280_temperature;BME280_humidity;BME280_pressure;Samples;Min_cycle;Max_cycle;Signal;HPM_P1;HPM_P2
2022/07/09 00:02:25;;;;;;;3.13;1.38;;;;;;;15.82;100.00;102441.25;6199648;28;20422;-70
2022/07/09 00:05:27;;;;;;;3.17;1.35;;;;;;;15.84;100.00;102441.16;6196256;28;20046;-70
2022/07/09 00:08:29;;;;;;;2.38;1.20;;;;;;;15.85;100.00;102446.41;6175905;28;20055;-70
2022/07/09 00:11:31;;;;;;;3.08;1.40;;;;;;;15.82;100.00;102441.25;6177241;28;20059;-70
2022/07/09 00:14:32;;;;;;;1.00;0.93;;;;;;;15.85;100.00;102445.53;6199564;28;20054;-69
2022/07/09 00:17:33;;;;;;;1.48;1.10;;;;;;;15.84;100.00;102446.47;6199911;28;20057;-69
2022/07/09 00:20:35;;;;;;;3.58;1.92;;;;;;;15.82;100.00;102432.44;6199575;28;20050;-69
2022/07/09 00:23:37;;;;;;;1.92;1.27;;;;;;;15.80;100.00;102437.78;6199897;28;20054;-69
2022/07/09 00:26:39;;;;;;;3.22;1.83;;;;;;;15.81;100.00;102431.56;6199511;28;20053;-69
2022/07/09 00:29:40;;;;;;;1.80;1.13;;;;;;;15.80;100.00;102434.28;6199568;28;20535;-70
2022/07/09 00:32:41;;;;;;;2.22;1.63;;;;;;;15.75;100.00;102428.34;6196910;28;20062;-69
2022/07/09 00:35:43;;;;;;;2.60;1.35;;;;;;;15.77;100.00;102430.00;6199278;28;20414;-69
2022/07/09 00:38:45;;;;;;;1.67;1.25;;;;;;;15.77;100.00;102432.66;6199479;28;20054;-69
2022/07/09 00:41:47;;;;;;;3.40;1.80;;;;;;;15.70;100.00;102429.44;6199148;28;20053;-69
2022/07/09 00:44:48;;;;;;;3.60;1.85;;;;;;;15.71;100.00;102430.28;6199090;28;20415;-69
2022/07/09 00:47:50;;;;;;;6.50;2.42;;;;;;;15.69;100.00;102422.41;6199168;28;20046;-69
2022/07/09 00:50:51;;;;;;;4.10;1.92;;;;;;;15.68;100.00;102430.44;6199039;28;20525;-69
2022/07/09 00:53:54;;;;;;;3.08;1.77;;;;;;;15.68;100.00;102418.06;6198864;28;20422;-70
2022/07/09 00:56:55;;;;;;;2.72;1.92;;;;;;;15.69;100.00;102419.75;6199177;28;20054;-69
2022/07/09 00:59:58;;;;;;;4.40;2.00;;;;;;;15.69;100.00;102414.47;6199069;28;20499;-70
2022/07/09 01:02:59;;;;;;;4.05;1.65;;;;;;;15.71;100.00;102406.41;6188624;28;20039;-70
2022/07/09 01:06:01;;;;;;;4.47;1.70;;;;;;;15.72;100.00;102405.50;6174567;28;20700;-69
2022/07/09 01:09:04;;;;;;;3.03;1.70;;;;;;;15.71;100.00;102402.00;6174544;28;20050;-70
2022/07/09 01:12:07;;;;;;;3.80;1.58;;;;;;;15.71;100.00;102401.13;6174388;28;20479;-69
2022/07/09 01:15:09;;;;;;;3.10;1.67;;;;;;;15.68;100.00;102390.69;6174369;28;20570;-69
2022/07/09 01:18:11;;;;;;;3.50;1.35;;;;;;;15.65;100.00;102398.78;6174552;28;20053;-70
2022/07/09 01:21:14;;;;;;;2.50;1.52;;;;;;;15.62;100.00;102391.78;6174181;28;20449;-69
2022/07/09 01:24:15;;;;;;;2.08;1.50;;;;;;;15.53;100.00;102394.03;6174229;28;20047;-69
2022/07/09 01:27:17;;;;;;;2.35;1.25;;;;;;;15.46;100.00;102386.38;6174305;28;20051;-69
2022/07/09 01:30:28;;;;;;;2.20;1.58;;;;;;;15.41;100.00;102383.09;6173969;28;20055;-69
2022/07/09 01:33:30;;;;;;;2.97;1.75;;;;;;;15.40;100.00;102378.72;6175305;28;20061;-69
2022/07/09 01:36:33;;;;;;;3.72;1.50;;;;;;;15.42;100.00;102371.56;6174105;28;20058;-69
2022/07/09 01:39:34;;;;;;;1.48;1.23;;;;;;;15.41;100.00;102375.16;6174050;28;20058;-69
2022/07/09 01:42:36;;;;;;;4.20;1.98;;;;;;;15.39;100.00;102374.34;6173605;28;20050;-69
2022/07/09 01:45:37;;;;;;;3.10;1.38;;;;;;;15.32;100.00;102378.22;6173774;28;20051;-70
2022/07/09 01:48:42;;;;;;;3.78;1.67;;;;;;;15.26;100.00;102375.88;6173756;28;20503;-70
2022/07/09 01:51:44;;;;;;;3.63;1.70;;;;;;;15.20;100.00;102363.75;6194775;28;20526;-70
2022/07/09 01:54:46;;;;;;;2.83;1.60;;;;;;;15.13;100.00;102377.38;6197414;28;20046;-70
2022/07/09 01:57:47;;;;;;;4.15;1.90;;;;;;;15.14;100.00;102366.72;6197747;28;20054;-70
2022/07/09 02:00:48;;;;;;;2.47;1.42;;;;;;;15.14;100.00;102366.72;6197377;28;20065;-70
2022/07/09 02:03:50;;;;;;;3.13;1.65;;;;;;;15.17;100.00;102363.03;6188491;28;20054;-70
2022/07/09 02:06:52;;;;;;;2.75;1.80;;;;;;;15.18;100.00;102359.47;6173594;28;20470;-70
2022/07/09 02:09:54;;;;;;;2.05;1.67;;;;;;;15.20;100.00;102354.97;6181628;28;20046;-70
2022/07/09 02:12:55;;;;;;;3.38;1.50;;;;;;;15.20;100.00;102360.25;6197750;28;20050;-70
2022/07/09 02:15:56;;;;;;;2.42;1.45;;;;;;;15.14;100.00;102353.47;6197280;28;20057;-70
2022/07/09 02:18:57;;;;;;;4.25;1.17;;;;;;;15.12;100.00;102349.16;6197764;28;20057;-70
2022/07/09 02:22:00;;;;;;;2.78;1.50;;;;;;;15.07;100.00;102345.88;6195057;28;20057;-70
2022/07/09 02:25:01;;;;;;;1.48;1.30;;;;;;;15.04;100.00;102349.53;6197367;28;20050;-70
2022/07/09 02:28:03;;;;;;;1.58;1.20;;;;;;;15.07;100.00;102344.06;6197710;28;20058;-70
2022/07/09 02:31:04;;;;;;;2.42;1.40;;;;;;;15.09;100.00;102341.38;6191744;28;20494;-69
2022/07/09 02:34:06;;;;;;;1.73;1.42;;;;;;;15.14;100.00;102342.03;6196615;28;20054;-70
2022/07/09 02:37:09;;;;;;;3.30;1.67;;;;;;;15.15;100.00;102343.72;6190256;28;20051;-69
2022/07/09 02:40:11;;;;;;;2.13;1.33;;;;;;;15.14;100.00;102340.22;6175456;28;20050;-69
2022/07/09 02:43:12;;;;;;;4.22;1.42;;;;;;;15.13;100.00;102338.50;6177032;28;20466;-69
2022/07/09 02:46:13;;;;;;;1.60;1.45;;;;;;;15.13;100.00;102340.31;6172855;28;20047;-70
2022/07/09 02:49:15;;;;;;;2.47;1.27;;;;;;;15.07;100.00;102335.28;6173221;28;20051;-70
2022/07/09 02:52:18;;;;;;;1.70;1.20;;;;;;;15.10;100.00;102336.00;6172893;28;20061;-70
2022/07/09 02:55:19;;;;;;;1.55;1.35;;;;;;;15.15;100.00;102336.63;6173839;28;20070;-70
2022/07/09 02:58:20;;;;;;;2.15;1.35;;;;;;;15.16;100.00;102334.84;6184332;28;20057;-70
2022/07/09 03:01:22;;;;;;;2.20;1.50;;;;;;;15.16;100.00;102341.00;6201644;28;20391;-70
2022/07/09 03:04:23;;;;;;;1.85;1.40;;;;;;;15.13;100.00;102337.66;6201442;28;20053;-70
2022/07/09 03:07:26;;;;;;;2.38;1.30;;;;;;;15.07;100.00;102336.13;6201440;28;20053;-70
2022/07/09 03:10:28;;;;;;;1.85;1.30;;;;;;;15.09;100.00;102333.44;6201276;28;20054;-70
2022/07/09 03:13:29;;;;;;;1.88;1.10;;;;;;;15.08;100.00;102337.00;6201383;28;20061;-69
2022/07/09 03:16:30;;;;;;;3.70;1.48;;;;;;;15.07;100.00;102327.34;6201301;28;20049;-69
2022/07/09 03:19:32;;;;;;;2.03;1.55;;;;;;;15.07;100.00;102327.34;6201192;28;20062;-70
2022/07/09 03:22:35;;;;;;;1.58;1.30;;;;;;;15.06;100.00;102331.78;6201010;28;20122;-69
2022/07/09 03:25:36;;;;;;;3.92;1.65;;;;;;;15.03;100.00;102326.63;6199098;28;20042;-69
2022/07/09 03:28:37;;;;;;;2.90;2.08;;;;;;;14.96;100.00;102333.13;6200909;28;20439;-69
2022/07/09 03:31:39;;;;;;;2.28;1.95;;;;;;;14.94;100.00;102325.28;6200611;28;20046;-70
2022/07/09 03:34:40;;;;;;;4.45;1.85;;;;;;;14.97;100.00;102321.63;6193288;28;20050;-70
2022/07/09 03:37:43;;;;;;;2.97;1.42;;;;;;;14.97;100.00;102321.63;6189577;28;20050;-69
2022/07/09 03:40:44;;;;;;;3.03;1.75;;;;;;;14.97;100.00;102318.97;6176353;28;20438;-70
2022/07/09 03:43:46;;;;;;;2.55;1.65;;;;;;;14.97;100.00;102324.25;6176301;28;20423;-70
2022/07/09 03:46:47;;;;;;;4.30;2.15;;;;;;;14.99;100.00;102322.41;6176256;28;20051;-70
2022/07/09 03:49:48;;;;;;;3.08;1.98;;;;;;;14.94;100.00;102320.00;6184835;28;20457;-70
2022/07/09 03:52:51;;;;;;;4.30;2.47;;;;;;;14.88;100.00;102320.25;6199882;28;20054;-69
2022/07/09 03:55:52;;;;;;;4.85;2.53;;;;;;;14.85;100.00;102314.22;6200406;28;20054;-70
2022/07/09 03:58:54;;;;;;;7.63;2.53;;;;;;;14.89;100.00;102308.72;6199966;28;20050;-70
2022/07/09 04:01:55;;;;;;;7.63;2.53;;;;;;;14.95;100.00;102302.31;6200143;28;20517;-69
2022/07/09 04:04:57;;;;;;;3.42;2.03;;;;;;;14.96;100.00;102293.44;6199950;28;20050;-70
2022/07/09 04:07:59;;;;;;;5.45;2.67;;;;;;;14.97;100.00;102296.00;6198835;28;20050;-70
2022/07/09 04:11:01;;;;;;;2.65;1.70;;;;;;;14.97;100.00;102296.00;6199748;28;20054;-70
2022/07/09 04:14:03;;;;;;;4.38;2.28;;;;;;;15.02;100.00;102293.13;6199714;28;20047;-69
2022/07/09 04:17:05;;;;;;;3.20;2.15;;;;;;;15.04;100.00;102295.72;6177581;28;20054;-70
2022/07/09 04:20:08;;;;;;;8.73;2.63;;;;;;;15.04;100.00;102287.78;6175400;28;20423;-70
2022/07/09 04:23:11;;;;;;;5.97;2.40;;;;;;;15.08;100.00;102298.16;6175802;28;20054;-69
2022/07/09 04:26:12;;;;;;;6.35;3.40;;;;;;;15.06;100.00;102304.44;6175246;28;20043;-70
2022/07/09 04:29:13;;;;;;;4.38;2.90;;;;;;;15.06;100.00;102297.34;6175625;28;20514;-70
2022/07/09 04:32:16;;;;;;;9.32;3.63;;;;;;;15.05;100.00;102286.84;6221991;23;20072;-79
2022/07/09 04:35:17;;;;;;;3.97;2.20;;;;;;;15.08;100.00;102298.16;6226722;28;20100;-78
2022/07/09 04:38:20;;;;;;;4.70;2.60;;;;;;;15.15;100.00;102293.41;6237070;28;20482;-78
2022/07/09 04:41:21;;;;;;;5.55;2.65;;;;;;;15.19;100.00;102290.53;6223442;28;20061;-78
2022/07/09 04:44:23;;;;;;;4.55;2.60;;;;;;;15.25;100.00;102289.38;6236230;28;20045;-78
2022/07/09 04:47:24;;;;;;;5.32;3.00;;;;;;;15.31;100.00;102297.06;6235980;28;20046;-78
2022/07/09 04:50:26;;;;;;;5.47;3.05;;;;;;;15.39;100.00;102301.97;6236608;28;20057;-78
2022/07/09 04:53:29;;;;;;;4.88;3.00;;;;;;;15.42;100.00;102301.81;6236741;28;20056;-79
2022/07/09 04:56:31;;;;;;;6.60;3.13;;;;;;;15.47;100.00;102307.75;6236583;28;20046;-78
2022/07/09 04:59:32;;;;;;;12.30;3.63;;;;;;;15.50;100.00;102302.31;6237335;28;20143;-79
2022/07/09 05:02:33;;;;;;;9.30;5.18;;;;;;;15.51;100.00;102308.47;6232965;28;20050;-78
2022/07/09 05:05:35;;;;;;;6.20;4.00;;;;;;;15.52;100.00;102312.81;6234235;28;20048;-78
2022/07/09 05:08:38;;;;;;;5.70;3.70;;;;;;;15.53;100.00;102307.44;6236129;28;20053;-78
2022/07/09 05:11:40;;;;;;;12.18;4.82;;;;;;;15.55;100.00;102304.72;6236713;28;20050;-78
2022/07/09 05:14:41;;;;;;;8.45;4.75;;;;;;;15.57;100.00;102313.44;6236419;28;20057;-78
2022/07/09 05:17:43;;;;;;;6.60;4.15;;;;;;;15.56;100.00;102307.28;6237676;28;20049;-78
2022/07/09 05:20:45;;;;;;;14.02;4.40;;;;;;;15.61;100.00;102307.06;6236352;28;20472;-78
2022/07/09 05:23:47;;;;;;;13.25;4.43;;;;;;;15.70;100.00;102296.91;6237093;28;20108;-78
2022/07/09 05:26:49;;;;;;;14.02;3.55;;;;;;;15.73;100.00;102288.81;6236134;28;20057;-78
2022/07/09 05:29:51;;;;;;;8.65;4.75;;;;;;;15.79;100.00;102289.41;6238402;28;20077;-78
2022/07/09 05:32:52;;;;;;;8.10;4.40;;;;;;;15.83;100.00;102299.78;6237036;28;20105;-78
2022/07/09 05:35:54;;;;;;;8.82;3.95;;;;;;;15.93;100.00;102295.72;6237961;28;20045;-79
2022/07/09 05:38:56;;;;;;;9.23;3.60;;;;;;;15.94;100.00;102285.97;6236647;28;20058;-78
2022/07/09 05:41:58;;;;;;;7.45;3.58;;;;;;;15.98;100.00;102292.84;6236704;28;20437;-78
2022/07/09 05:44:59;;;;;;;11.25;4.85;;;;;;;15.96;100.00;102295.59;6237781;28;20061;-79
2022/07/09 05:48:00;;;;;;;10.18;3.58;;;;;;;16.00;100.00;102298.94;6235871;28;20045;-79
2022/07/09 05:51:02;;;;;;;11.52;3.97;;;;;;;16.01;100.00;102297.16;6234406;28;20045;-78
2022/07/09 05:54:04;;;;;;;5.38;3.28;;;;;;;16.04;100.00;102297.84;6233144;28;20045;-78
2022/07/09 05:57:06;;;;;;;5.53;3.00;;;;;;;16.14;100.00;102299.09;6233319;28;20345;-79
2022/07/09 06:00:09;;;;;;;9.23;3.75;;;;;;;16.12;100.00;102297.44;6227860;28;20046;-78
2022/07/09 06:03:10;;;;;;;10.10;5.20;;;;;;;16.12;100.00;102290.34;6235201;28;20053;-78
2022/07/09 06:06:12;;;;;;;6.88;4.20;;;;;;;16.13;100.00;102301.81;6235187;28;20046;-79
2022/07/09 06:09:14;;;;;;;9.93;3.67;;;;;;;16.14;100.00;102301.75;6236245;28;20054;-78
2022/07/09 06:12:16;;;;;;;5.10;3.40;;;;;;;16.16;100.00;102302.50;6234652;28;20056;-78
2022/07/09 06:15:17;;;;;;;5.85;3.67;;;;;;;16.19;100.00;102294.41;6233611;28;20057;-79
2022/07/09 06:18:19;;;;;;;7.82;3.60;;;;;;;16.23;100.00;102295.94;6235062;28;20057;-79
2022/07/09 06:21:20;;;;;;;5.55;3.03;;;;;;;16.31;100.00;102294.72;6236396;28;20057;-78
2022/07/09 06:24:24;;;;;;;6.90;3.83;;;;;;;16.33;100.00;102285.72;6234871;28;20089;-79
2022/07/09 06:27:25;;;;;;;7.47;4.07;;;;;;;16.35;100.00;102281.19;6232884;28;20053;-79
2022/07/09 06:30:27;;;;;;;5.15;3.67;;;;;;;16.39;100.00;102289.81;6236587;28;20053;-78
2022/07/09 06:33:28;;;;;;;4.07;3.20;;;;;;;16.46;100.00;102285.91;6237741;28;20046;-79
2022/07/09 06:36:30;;;;;;;7.00;3.35;;;;;;;16.51;100.00;102277.72;6237361;28;20042;-78
2022/07/09 06:39:48;;;;;;;5.85;2.90;;;;;;;16.61;100.00;102277.13;6228783;28;20061;-78
2022/07/09 06:42:50;;;;;;;6.27;2.83;;;;;;;16.67;100.00;102274.16;6215976;28;20131;-78
2022/07/09 06:45:52;;;;;;;7.38;2.90;;;;;;;16.78;100.00;102278.03;6236629;28;20125;-80
2022/07/09 06:48:54;;;;;;;4.03;2.22;;;;;;;16.73;100.00;102275.63;6233923;28;20051;-78
2022/07/09 06:51:56;;;;;;;3.85;2.40;;;;;;;16.77;100.00;102276.34;6236269;28;20417;-79
2022/07/09 06:54:59;;;;;;;6.07;2.50;;;;;;;16.83;100.00;102279.50;6237957;28;20049;-84
2022/07/09 06:58:00;;;;;;;3.97;2.42;;;;;;;16.83;100.00;102279.50;6224035;28;20060;-76
2022/07/09 07:01:01;;;;;;;2.78;1.90;;;;;;;16.89;100.00;102283.59;6226647;28;20516;-75
2022/07/09 07:04:03;;;;;;;6.25;2.60;;;;;;;16.94;100.00;102266.50;6224148;28;20042;-74
2022/07/09 07:07:05;;;;;;;4.43;2.33;;;;;;;17.00;100.00;102273.25;6224036;28;20418;-75
2022/07/09 07:10:09;;;;;;;3.50;1.80;;;;;;;17.04;100.00;102269.50;6224503;28;20054;-77
2022/07/09 07:13:11;;;;;;;2.88;2.08;;;;;;;17.14;100.00;102264.50;6227760;28;20442;-78
2022/07/09 07:16:13;;;;;;;3.40;2.13;;;;;;;17.17;100.00;102261.69;6229151;28;20046;-80
2022/07/09 07:19:14;;;;;;;3.65;2.10;;;;;;;17.23;100.00;102264.84;6230875;28;20046;-80
2022/07/09 07:22:16;;;;;;;3.38;2.10;;;;;;;17.22;100.00;102262.28;6230597;28;20046;-80
2022/07/09 07:25:18;;;;;;;2.15;1.77;;;;;;;17.24;100.00;102263.03;6224806;28;20045;-79
2022/07/09 07:28:20;;;;;;;2.92;1.90;;;;;;;17.28;100.00;102263.72;6225588;28;20053;-79
2022/07/09 07:31:22;;;;;;;2.75;1.70;;;;;;;17.32;100.00;102267.94;6192388;28;989827;-79
2022/07/09 07:34:24;;;;;;;3.75;1.42;;;;;;;17.37;100.00;102263.19;6227020;28;20050;-78
2022/07/09 07:37:25;;;;;;;5.32;2.00;;;;;;;17.38;100.00;102268.41;6228616;28;20173;-78
2022/07/09 07:40:28;;;;;;;2.40;1.50;;;;;;;17.33;100.00;102256.34;6221504;28;20480;-77
2022/07/09 07:43:29;;;;;;;3.38;2.38;;;;;;;17.25;100.00;102273.56;6208727;28;20050;-80
2022/07/09 07:46:31;;;;;;;5.35;2.10;;;;;;;17.19;100.00;102260.66;6209713;28;20058;-81
2022/07/09 07:49:32;;;;;;;3.88;1.80;;;;;;;17.15;100.00;102261.75;6209221;28;20054;-80
2022/07/09 07:52:33;;;;;;;2.88;2.00;;;;;;;17.17;100.00;102262.53;6208505;28;20050;-79
2022/07/09 07:55:36;;;;;;;2.10;1.80;;;;;;;17.19;100.00;102270.41;6207349;28;20058;-80
2022/07/09 07:58:37;;;;;;;3.17;1.50;;;;;;;17.19;100.00;102265.97;6209251;28;20046;-81
2022/07/09 08:01:39;;;;;;;1.30;1.20;;;;;;;17.24;100.00;102265.69;6214590;28;20046;-80
2022/07/09 08:04:40;;;;;;;1.50;1.27;;;;;;;17.32;100.00;102257.28;6227769;28;20073;-79
2022/07/09 08:07:41;;;;;;;2.90;1.60;;;;;;;17.43;100.00;102249.53;6218185;28;20062;-78
2022/07/09 08:10:44;;;;;;;3.92;2.10;;;;;;;17.49;100.00;102257.19;6226656;28;20056;-79
2022/07/09 08:13:45;;;;;;;1.60;1.35;;;;;;;17.56;100.00;102263.84;6227784;28;20064;-79
2022/07/09 08:16:47;;;;;;;2.00;1.40;;;;;;;17.63;100.00;102262.53;6233116;28;20042;-82
2022/07/09 08:19:48;;;;;;;2.10;1.55;;;;;;;17.64;100.00;102252.75;6232283;28;20060;-77
2022/07/09 08:22:50;;;;;;;4.20;1.40;;;;;;;17.67;100.00;102263.22;6228848;28;20054;-77
2022/07/09 08:25:52;;;;;;;2.70;1.55;;;;;;;17.68;100.00;102262.28;6226855;28;20057;-73
2022/07/09 08:28:54;;;;;;;2.58;1.30;;;;;;;17.69;100.00;102248.88;6227277;28;20494;-76
2022/07/09 08:31:55;;;;;;;2.13;1.30;;;;;;;17.69;100.00;102253.34;6229731;28;20057;-79
2022/07/09 08:34:56;;;;;;;1.42;1.33;;;;;;;17.69;100.00;102256.00;6232520;28;20053;-77
2022/07/09 08:37:58;;;;;;;3.65;1.40;;;;;;;17.73;100.00;102255.75;6230408;28;20493;-77
2022/07/09 08:41:01;;;;;;;1.20;1.08;;;;;;;17.79;100.00;102259.00;6226063;28;20135;-77
2022/07/09 08:44:04;;;;;;;1.10;1.00;;;;;;;17.91;100.00;102245.81;6226477;28;20057;-77
2022/07/09 08:47:06;;;;;;;2.80;1.35;;;;;;;18.04;100.00;102239.78;6225031;28;20050;-76
2022/07/09 08:50:09;;;;;;;1.48;1.35;;;;;;;18.10;100.00;102239.38;6222335;28;20048;-77
2022/07/09 08:53:13;;;;;;;2.72;1.30;;;;;;;18.08;100.00;102223.53;6224600;28;20068;-76
2022/07/09 08:56:15;;;;;;;3.47;1.35;;;;;;;18.04;100.00;102222.00;6226862;28;20061;-76
2022/07/09 08:59:17;;;;;;;2.22;1.35;;;;;;;18.03;100.00;102222.91;6226400;28;20064;-77
2022/07/09 09:02:20;;;;;;;3.03;1.30;;;;;;;18.10;100.00;102228.75;6227819;28;20510;-78
2022/07/09 09:05:21;;;;;;;2.60;1.42;;;;;;;18.19;100.00;102230.84;6225941;28;20053;-78
2022/07/09 09:08:23;;;;;;;2.22;1.02;;;;;;;18.33;100.00;102225.50;6224654;28;20049;-78
2022/07/09 09:11:26;;;;;;;5.00;1.40;;;;;;;18.53;100.00;102221.63;6224412;28;20735;-76
2022/07/09 09:14:30;;;;;;;4.00;1.40;;;;;;;18.53;100.00;102229.59;6226536;28;20050;-77
2022/07/09 09:17:31;;;;;;;3.75;1.10;;;;;;;18.49;100.00;102228.94;6226005;28;20046;-76
2022/07/09 09:20:33;;;;;;;1.45;1.35;;;;;;;18.66;100.00;102229.66;6227641;28;20076;-77
2022/07/09 09:23:42;;;;;;;2.40;1.38;;;;;;;18.78;100.00;102236.03;6212193;28;20058;-76
2022/07/09 09:26:45;;;;;;;2.10;1.02;;;;;;;18.94;100.00;102232.31;6200488;28;20054;-76
2022/07/09 09:29:50;;;;;;;2.13;0.80;;;;;;;18.91;97.91;102234.31;6200628;28;20073;-76
2022/07/09 09:32:56;;;;;;;1.38;1.10;;;;;;;18.85;98.56;102221.38;6201620;28;20050;-77
2022/07/09 09:35:58;;;;;;;4.50;1.20;;;;;;;18.81;96.31;102222.53;6199689;28;20097;-74
2022/07/09 09:39:13;;;;;;;1.67;0.98;;;;;;;18.86;97.56;102228.44;6199507;28;20054;-75
2022/07/09 09:42:16;;;;;;;3.33;1.00;;;;;;;18.89;97.86;102215.72;6219033;28;20056;-77
2022/07/09 09:45:18;;;;;;;1.75;1.00;;;;;;;18.95;98.75;102220.69;6227773;28;20054;-77
2022/07/09 09:48:20;;;;;;;2.85;1.10;;;;;;;19.12;97.85;102211.59;6222121;28;20433;-77
2022/07/09 09:51:21;;;;;;;2.40;1.00;;;;;;;19.16;93.90;102215.75;6227817;28;20050;-77
2022/07/09 09:54:24;;;;;;;0.90;0.80;;;;;;;19.07;91.51;102203.03;6228242;28;20410;-76
2022/07/09 09:57:28;;;;;;;1.13;0.90;;;;;;;19.14;91.72;102209.66;6223312;28;20049;-75
2022/07/09 10:00:29;;;;;;;1.02;0.75;;;;;;;19.25;92.49;102192.94;6227328;28;20151;-75
2022/07/09 10:03:31;;;;;;;1.45;0.93;;;;;;;19.37;93.38;102197.47;6222981;28;20499;-77
2022/07/09 10:06:33;;;;;;;1.10;0.82;;;;;;;19.44;92.50;102190.78;6222477;28;20053;-76
2022/07/09 10:09:35;;;;;;;1.10;0.75;;;;;;;19.63;89.03;102201.06;6224216;28;20057;-75
2022/07/09 10:12:38;;;;;;;0.80;0.80;;;;;;;19.82;89.71;102202.47;6222546;28;20050;-77
2022/07/09 10:15:49;;;;;;;0.77;0.77;;;;;;;19.97;89.34;102180.06;6222041;28;20065;-76
2022/07/09 10:18:51;;;;;;;1.35;0.90;;;;;;;20.01;88.04;102182.41;6222493;28;20050;-76
2022/07/09 10:21:55;;;;;;;0.75;0.75;;;;;;;19.95;87.50;102182.84;6227148;28;20533;-77
2022/07/09 10:24:56;;;;;;;2.78;0.90;;;;;;;19.72;86.17;102175.59;6224341;28;20050;-76
2022/07/09 10:27:59;;;;;;;1.10;0.93;;;;;;;19.58;88.13;102171.16;6223271;28;20395;-76
2022/07/09 10:31:07;;;;;;;1.15;0.80;;;;;;;19.59;88.67;102164.03;6222441;28;20069;-76
2022/07/09 10:34:17;;;;;;;0.98;0.90;;;;;;;19.69;90.85;102154.44;6221571;28;20053;-76
2022/07/09 10:37:30;;;;;;;1.00;0.70;;;;;;;19.98;87.10;102157.72;6221824;28;20053;-77
2022/07/09 10:40:39;;;;;;;1.60;0.93;;;;;;;20.12;83.43;102159.41;6219232;28;20489;-76
2022/07/09 10:43:46;;;;;;;2.13;0.77;;;;;;;20.24;80.98;102155.88;6212164;28;20061;-77
2022/07/09 10:46:56;;;;;;;0.65;0.65;;;;;;;20.24;83.16;102153.22;6221794;28;20046;-76
2022/07/09 10:50:03;;;;;;;2.08;0.80;;;;;;;20.25;84.39;102154.91;6219973;28;20050;-77
2022/07/09 10:53:05;;;;;;;1.40;0.80;;;;;;;20.31;82.14;102138.47;6222247;28;20049;-76
2022/07/09 10:56:07;;;;;;;1.63;0.70;;;;;;;20.47;80.99;102136.41;6221431;28;20046;-75
2022/07/09 10:59:16;;;;;;;1.10;0.65;;;;;;;20.55;77.35;102127.84;6221526;28;20057;-77
2022/07/09 11:02:19;;;;;;;0.73;0.73;;;;;;;20.62;77.76;102137.13;6211243;28;20047;-77
2022/07/09 11:05:20;;;;;;;2.35;0.80;;;;;;;20.59;79.43;102124.00;6215664;28;20132;-77
2022/07/09 11:08:22;;;;;;;1.85;0.95;;;;;;;20.64;77.12;102126.31;6216308;28;20101;-76
2022/07/09 11:11:24;;;;;;;0.70;0.60;;;;;;;20.86;78.38;102121.09;6198070;28;20051;-76
2022/07/09 11:14:27;;;;;;;0.43;0.30;;;;;;;20.81;74.62;102117.91;6199461;28;20050;-78
2022/07/09 11:17:28;;;;;;;0.82;0.63;;;;;;;20.70;73.71;102117.84;6216838;28;20057;-75
2022/07/09 11:20:30;;;;;;;0.60;0.50;;;;;;;20.58;74.35;102116.94;6225415;28;20060;-75
2022/07/09 11:23:32;;;;;;;2.03;0.88;;;;;;;20.48;77.69;102111.44;6225568;28;20060;-75
2022/07/09 11:26:33;;;;;;;1.67;0.60;;;;;;;20.99;77.47;102113.84;6225498;28;20050;-74
2022/07/09 11:29:37;;;;;;;1.42;0.57;;;;;;;21.58;75.13;102106.72;6225314;28;20421;-74
2022/07/09 11:32:38;;;;;;;1.00;0.80;;;;;;;22.04;69.44;102103.94;6223163;28;20061;-76
2022/07/09 11:35:44;;;;;;;1.25;0.50;;;;;;;22.23;70.82;102097.97;6220481;28;20061;-76
2022/07/09 11:38:50;;;;;;;1.25;0.82;;;;;;;22.10;68.99;102106.09;6226641;28;20058;-75
2022/07/09 11:41:51;;;;;;;0.73;0.50;;;;;;;21.61;68.45;102095.78;6225234;28;20057;-77
2022/07/09 11:44:59;;;;;;;1.15;0.50;;;;;;;21.15;71.12;102101.97;6224961;28;20046;-76
2022/07/09 11:48:05;;;;;;;0.70;0.70;;;;;;;20.80;72.84;102113.50;6223238;28;20046;-77
2022/07/09 11:51:07;;;;;;;0.50;0.40;;;;;;;20.54;77.40;102114.63;6225204;28;20049;-77
2022/07/09 11:54:08;;;;;;;0.65;0.60;;;;;;;20.39;80.05;102130.75;6218924;28;20045;-78
2022/07/09 11:57:19;;;;;;;0.43;0.43;;;;;;;19.85;87.45;102157.78;6225644;28;20046;-78
2022/07/09 12:00:24;;;;;;;0.98;0.77;;;;;;;18.69;100.00;102165.59;6225718;28;20425;-77
2022/07/09 12:03:26;;;;;;;1.90;1.20;;;;;;;17.14;100.00;102168.88;6220738;28;20047;-75
2022/07/09 12:06:28;;;;;;;3.67;0.95;;;;;;;16.66;100.00;102158.28;6221187;28;20200;-74
2022/07/09 12:09:31;;;;;;;2.13;0.98;;;;;;;16.38;100.00;102158.97;6224161;28;20045;-74
2022/07/09 12:12:33;;;;;;;1.92;1.20;;;;;;;16.30;100.00;102153.22;6224527;28;20069;-73
2022/07/09 12:15:36;;;;;;;1.73;0.75;;;;;;;16.35;100.00;102143.22;6224158;28;20056;-74
2022/07/09 12:18:37;;;;;;;1.00;0.90;;;;;;;16.48;100.00;102141.56;6224624;28;20053;-74
2022/07/09 12:21:39;;;;;;;5.43;1.25;;;;;;;16.40;100.00;102150.94;6222547;28;20418;-75
2022/07/09 12:24:40;;;;;;;3.90;1.10;;;;;;;16.23;100.00;102142.09;6223934;28;20050;-75
2022/07/09 12:27:42;;;;;;;1.58;1.27;;;;;;;16.36;100.00;102134.31;6223291;28;20049;-74
2022/07/09 12:30:45;;;;;;;1.77;1.05;;;;;;;16.58;100.00;102125.13;6223735;28;20050;-75
2022/07/09 12:33:46;;;;;;;1.33;1.20;;;;;;;16.98;100.00;102124.59;6223738;28;20497;-75
2022/07/09 12:36:47;;;;;;;1.50;1.15;;;;;;;17.09;100.00;102121.34;6223906;28;20073;-75
2022/07/09 12:39:49;;;;;;;1.58;1.30;;;;;;;17.74;100.00;102123.66;6223075;28;20409;-75
2022/07/09 12:42:50;;;;;;;2.03;1.30;;;;;;;18.37;100.00;102123.22;6223421;28;20525;-75
2022/07/09 12:45:53;;;;;;;1.77;1.20;;;;;;;18.68;100.00;102119.44;6223438;28;20528;-75
2022/07/09 12:48:54;;;;;;;1.25;1.10;;;;;;;19.16;100.00;102114.47;6216221;28;20057;-76
2022/07/09 12:51:56;;;;;;;5.53;1.23;;;;;;;19.63;100.00;102102.38;6223168;28;20398;-76
2022/07/09 12:54:57;;;;;;;1.00;0.82;;;;;;;19.75;100.00;102090.84;6223200;28;20050;-76
2022/07/09 12:57:58;;;;;;;0.88;0.80;;;;;;;20.19;100.00;102084.13;6223533;28;20413;-76
2022/07/09 13:01:01;;;;;;;1.05;0.80;;;;;;;20.50;100.00;102085.44;6223072;28;20057;-76
2022/07/09 13:04:02;;;;;;;0.73;0.70;;;;;;;20.70;100.00;102081.28;6223313;28;20053;-76
2022/07/09 13:07:04;;;;;;;2.65;1.05;;;;;;;20.55;100.00;102113.66;6223167;28;20045;-76
2022/07/09 13:10:08;;;;;;;1.88;0.75;;;;;;;19.64;100.00;102114.75;6222848;28;20041;-76
2022/07/09 13:13:09;;;;;;;1.00;0.80;;;;;;;18.21;100.00;102115.38;6223497;28;20057;-75
2022/07/09 13:16:12;;;;;;;1.13;0.57;;;;;;;17.41;100.00;102107.94;6221270;28;20057;-75
2022/07/09 13:19:13;;;;;;;1.00;0.90;;;;;;;17.44;100.00;102113.03;6223238;28;20054;-75
2022/07/09 13:22:15;;;;;;;2.85;0.88;;;;;;;17.59;100.00;102103.31;6222716;28;20056;-75
2022/07/09 13:25:17;;;;;;;2.17;1.40;;;;;;;18.31;100.00;102102.34;6222998;28;20081;-75
2022/07/09 13:28:18;;;;;;;2.08;1.30;;;;;;;18.96;100.00;102101.66;6222620;28;20418;-75
2022/07/09 13:31:21;;;;;;;1.90;0.98;;;;;;;19.15;100.00;102102.09;6222550;28;20050;-74
2022/07/09 13:34:22;;;;;;;3.95;1.00;;;;;;;19.14;100.00;102100.41;6222794;28;20105;-73
2022/07/09 13:37:24;;;;;;;1.45;0.85;;;;;;;19.22;100.00;102103.41;6222838;28;20054;-74
2022/07/09 13:40:25;;;;;;;2.60;0.98;;;;;;;19.03;100.00;102102.94;6222418;28;20490;-73
2022/07/09 13:43:26;;;;;;;0.85;0.82;;;;;;;19.35;100.00;102095.44;6222362;28;20045;-75
2022/07/09 13:46:30;;;;;;;2.45;1.00;;;;;;;19.24;100.00;102093.47;6218087;28;20046;-74
2022/07/09 13:49:31;;;;;;;0.93;0.70;;;;;;;18.90;100.00;102096.75;6222149;28;20050;-74
2022/07/09 13:52:32;;;;;;;3.92;0.95;;;;;;;19.07;100.00;102104.44;6222306;28;20046;-74
2022/07/09 13:55:34;;;;;;;0.80;0.80;;;;;;;18.91;100.00;102107.28;6221966;28;20049;-76
2022/07/09 13:58:35;;;;;;;0.80;0.80;;;;;;;18.77;100.00;102109.16;6222144;28;20425;-77
2022/07/09 14:01:38;;;;;;;1.52;0.75;;;;;;;19.05;100.00;102113.50;6222385;28;20049;-76